Manchester, Maine
Current Conditions -  °F | °C
As of 1:53 AM on Saturday 20 Dec 2014 (Local Time) from KAUG Reporting Station
Clear Clear  
Wind Chill: 14°   Ceiling: Unl
Heat Index: 23°   Visibility: 10mi
Dew Point: 14°   Wind: 8mph
Humidity: 68%   Direction: 360°N
Pressure: 30.18"   Gusts: NA
Location:  44.32°N, 69.86°W
Report Text: KAUG 200653Z AUTO 36007KT 10SM CLR M05/M10 A3018 RMK AO2 SLP225 T10501100
Loading
Personal Weather Stations






























Interactive Weather Map New forecast layout! Learn more

10-Day Weather Forecast

Advertisements
Track Severe Weather on mobile